createdAt,value
2022-08-26T00:02:28.205Z,69.59
2022-08-26T00:05:37.179Z,69.90
2022-08-26T00:08:46.840Z,70.40
2022-08-26T00:12:00.587Z,70.64
2022-08-26T00:15:12.110Z,70.93
2022-08-26T00:18:22.162Z,70.79
2022-08-26T00:21:28.787Z,71.03
2022-08-26T00:24:37.802Z,70.96
2022-08-26T00:27:46.857Z,70.96
2022-08-26T00:30:53.248Z,71.06
2022-08-26T00:34:02.269Z,71.06
2022-08-26T00:37:13.420Z,70.91
2022-08-26T00:40:27.717Z,70.76
2022-08-26T00:43:47.443Z,70.74
2022-08-26T00:47:02.018Z,70.70
2022-08-26T00:50:21.176Z,70.62
2022-08-26T00:53:41.485Z,70.71
2022-08-26T00:56:54.356Z,70.80
2022-08-26T01:00:13.565Z,70.77
2022-08-26T01:03:26.693Z,70.66
2022-08-26T01:10:11.971Z,70.99
2022-08-26T01:13:20.635Z,71.19
2022-08-26T01:16:38.595Z,71.34
2022-08-26T01:19:50.249Z,71.73
2022-08-26T01:23:03.232Z,72.04
2022-08-26T01:26:19.670Z,71.89
2022-08-26T01:29:28.508Z,71.89
2022-08-26T01:32:38.994Z,72.72
2022-08-26T01:35:45.671Z,73.19
2022-08-26T01:38:54.623Z,73.49
2022-08-26T01:42:02.967Z,73.36
2022-08-26T01:45:14.120Z,73.47
2022-08-26T01:48:42.920Z,73.75
2022-08-26T01:51:51.710Z,73.85
2022-08-26T01:55:07.866Z,73.80
2022-08-26T01:58:29.259Z,73.81
2022-08-26T02:01:33.353Z,74.00
2022-08-26T02:04:51.213Z,74.35
2022-08-26T02:08:07.287Z,74.20
2022-08-26T02:11:14.619Z,74.02
2022-08-26T02:14:26.736Z,74.00
2022-08-26T02:17:39.897Z,73.92
2022-08-26T02:20:45.343Z,74.16
2022-08-26T02:23:56.162Z,74.33
2022-08-26T02:27:06.047Z,74.54
2022-08-26T02:30:17.191Z,74.66
2022-08-26T02:33:25.707Z,74.58
2022-08-26T02:36:34.666Z,74.80
2022-08-26T02:39:43.146Z,74.93
2022-08-26T02:42:53.138Z,74.65
2022-08-26T02:46:04.181Z,74.57
2022-08-26T02:49:11.548Z,74.69
2022-08-26T02:52:18.247Z,74.60
2022-08-26T02:55:27.258Z,74.48
2022-08-26T02:58:35.081Z,74.45
2022-08-26T03:01:41.610Z,74.50
2022-08-26T03:04:58.080Z,74.56
2022-08-26T03:08:08.240Z,74.62
2022-08-26T03:11:17.024Z,74.79
2022-08-26T03:14:25.848Z,75.02
2022-08-26T03:17:33.248Z,74.88
2022-08-26T03:20:47.600Z,75.12
2022-08-26T03:23:58.934Z,74.86
2022-08-26T03:27:08.583Z,75.13
2022-08-26T03:30:36.407Z,75.44
2022-08-26T03:33:43.486Z,75.65
2022-08-26T03:36:52.926Z,75.36
2022-08-26T03:40:02.157Z,74.99
2022-08-26T03:43:15.161Z,75.68
2022-08-26T03:46:23.534Z,75.63
2022-08-26T03:49:35.796Z,75.94
2022-08-26T03:52:44.054Z,75.66
2022-08-26T03:55:52.044Z,76.04
2022-08-26T03:58:58.527Z,76.28
2022-08-26T04:02:11.317Z,76.45
2022-08-26T04:05:19.239Z,75.97
2022-08-26T04:08:32.099Z,76.11
2022-08-26T04:11:42.618Z,76.08
2022-08-26T04:15:02.103Z,76.40
2022-08-26T04:18:36.913Z,76.65
2022-08-26T04:21:48.996Z,76.33
2022-08-26T04:24:56.846Z,76.61
2022-08-26T04:28:04.241Z,76.73
2022-08-26T04:31:17.576Z,76.74
2022-08-26T04:34:28.723Z,76.80
2022-08-26T04:37:36.761Z,77.02
2022-08-26T04:40:47.126Z,77.14
2022-08-26T04:43:57.200Z,77.13
2022-08-26T04:47:03.630Z,77.36
2022-08-26T04:50:12.686Z,77.71
2022-08-26T04:53:21.101Z,78.25
2022-08-26T04:56:33.541Z,78.13
2022-08-26T04:59:56.266Z,78.47
2022-08-26T05:03:06.299Z,78.49
2022-08-26T05:06:19.245Z,78.35
2022-08-26T05:09:30.588Z,78.53
2022-08-26T05:12:40.481Z,79.66
2022-08-26T05:15:48.918Z,79.31
2022-08-26T05:19:02.646Z,79.13
2022-08-26T05:22:20.385Z,79.28
2022-08-26T05:25:30.252Z,78.48
2022-08-26T05:28:58.098Z,78.80
2022-08-26T05:32:16.059Z,79.35
2022-08-26T05:35:26.408Z,79.08
2022-08-26T05:38:41.269Z,79.27
2022-08-26T05:41:52.658Z,79.50
2022-08-26T05:44:59.540Z,79.18
2022-08-26T05:48:11.030Z,78.98
2022-08-26T05:51:20.136Z,79.06
2022-08-26T05:54:34.709Z,78.37
2022-08-26T05:57:43.534Z,78.15
2022-08-26T06:00:50.925Z,77.96
2022-08-26T06:04:04.731Z,77.95
2022-08-26T06:07:12.494Z,78.42
2022-08-26T06:10:33.373Z,78.05
2022-08-26T06:13:40.866Z,78.26
2022-08-26T06:16:51.138Z,78.11
2022-08-26T06:20:02.038Z,77.64
2022-08-26T06:23:21.003Z,78.47
2022-08-26T06:26:30.438Z,78.65
2022-08-26T06:29:39.329Z,78.15
2022-08-26T06:32:46.818Z,78.04
2022-08-26T06:35:54.570Z,77.80
2022-08-26T06:39:08.621Z,77.21
2022-08-26T06:42:18.774Z,76.38
2022-08-26T06:45:26.987Z,75.14
2022-08-26T06:48:33.567Z,73.38
2022-08-26T06:51:40.982Z,70.17
2022-08-26T06:54:46.918Z,68.17
2022-08-26T06:57:55.444Z,67.63
2022-08-26T07:01:11.421Z,67.84
2022-08-26T07:04:20.250Z,68.25
2022-08-26T07:07:30.493Z,68.07
2022-08-26T07:10:40.988Z,68.11
2022-08-26T07:13:50.532Z,67.46
2022-08-26T07:16:58.270Z,66.37
2022-08-26T07:20:07.980Z,65.68
2022-08-26T07:23:17.318Z,66.05
2022-08-26T07:26:28.553Z,65.60
2022-08-26T07:29:52.151Z,66.33
2022-08-26T07:33:15.035Z,66.55
2022-08-26T07:36:51.918Z,67.23
2022-08-26T07:39:58.993Z,68.00
2022-08-26T07:43:13.027Z,66.65
2022-08-26T07:46:29.897Z,66.12
2022-08-26T07:49:42.090Z,66.83
2022-08-26T07:52:52.964Z,67.59
2022-08-26T07:56:03.613Z,66.68
2022-08-26T07:59:14.084Z,66.65
2022-08-26T08:02:28.832Z,65.46
2022-08-26T08:05:35.625Z,64.73
2022-08-26T08:08:42.530Z,64.42
2022-08-26T08:11:51.297Z,63.43
2022-08-26T08:14:58.038Z,62.43
2022-08-26T08:18:15.728Z,61.55
2022-08-26T08:21:24.319Z,59.33
2022-08-26T08:24:30.949Z,57.98
2022-08-26T08:27:37.993Z,57.61
2022-08-26T08:30:45.033Z,55.86
2022-08-26T08:33:55.641Z,53.64
2022-08-26T08:37:03.042Z,52.21
2022-08-26T08:40:14.823Z,50.84
2022-08-26T08:43:37.690Z,49.24
2022-08-26T08:46:48.097Z,48.92
2022-08-26T08:50:02.764Z,48.77
2022-08-26T08:53:15.902Z,48.95
2022-08-26T08:56:28.175Z,48.26
2022-08-26T08:59:38.393Z,46.45
2022-08-26T09:02:52.106Z,45.32
2022-08-26T09:06:04.205Z,46.42
2022-08-26T09:09:27.615Z,44.88
2022-08-26T09:12:46.637Z,44.53
2022-08-26T09:16:26.213Z,43.21
2022-08-26T09:19:58.373Z,43.42
2022-08-26T09:23:57.377Z,44.73
2022-08-26T09:27:44.185Z,44.24
2022-08-26T09:31:21.075Z,45.38
2022-08-26T09:34:56.862Z,46.04
2022-08-26T09:38:44.802Z,46.56
2022-08-26T09:49:25.893Z,47.31
2022-08-26T09:56:53.628Z,47.22
2022-08-26T10:04:15.107Z,45.44
2022-08-26T10:07:40.898Z,45.21
2022-08-26T10:10:53.332Z,43.71
2022-08-26T10:14:11.868Z,43.46
2022-08-26T10:17:25.948Z,42.36
2022-08-26T10:20:38.110Z,42.03
2022-08-26T10:23:50.344Z,41.04
2022-08-26T10:27:05.373Z,41.48
2022-08-26T10:30:16.254Z,42.70
2022-08-26T10:33:24.462Z,42.88
2022-08-26T10:40:25.395Z,41.38
2022-08-26T10:43:38.732Z,40.69
2022-08-26T10:46:55.497Z,40.05
2022-08-26T10:50:04.201Z,39.07
2022-08-26T10:53:19.686Z,39.08
2022-08-26T10:56:47.085Z,38.45
2022-08-26T11:00:02.016Z,38.08
2022-08-26T11:03:43.750Z,37.77
2022-08-26T11:07:23.384Z,36.42
2022-08-26T11:14:58.438Z,36.52
2022-08-26T11:18:09.024Z,36.62
2022-08-26T11:21:53.109Z,37.01
2022-08-26T11:29:13.314Z,37.01
2022-08-26T11:32:56.228Z,37.10
2022-08-26T11:36:12.416Z,37.30
2022-08-26T11:39:46.820Z,37.70
2022-08-26T11:43:30.278Z,36.79
2022-08-26T11:47:14.346Z,36.20
2022-08-26T11:50:35.540Z,36.58
2022-08-26T11:54:02.124Z,35.52
2022-08-26T11:57:12.401Z,34.91
2022-08-26T12:00:23.793Z,34.44
2022-08-26T12:03:52.205Z,32.65
2022-08-26T12:07:03.998Z,33.92
2022-08-26T12:10:29.566Z,34.56
2022-08-26T12:13:36.515Z,33.95
2022-08-26T12:16:44.081Z,33.11
2022-08-26T12:19:53.673Z,33.00
2022-08-26T12:23:01.811Z,31.98
2022-08-26T12:26:11.175Z,32.32
2022-08-26T12:29:27.552Z,32.10
2022-08-26T12:32:34.313Z,32.66
2022-08-26T12:35:48.469Z,34.17
2022-08-26T12:38:58.717Z,36.30
2022-08-26T12:42:08.655Z,37.07
2022-08-26T12:45:16.741Z,36.67
2022-08-26T12:48:30.299Z,37.36
2022-08-26T12:51:43.173Z,37.83
2022-08-26T12:55:01.679Z,38.62
2022-08-26T12:58:28.087Z,39.58
2022-08-26T13:01:48.829Z,40.29
2022-08-26T13:05:04.042Z,40.47
2022-08-26T13:08:35.970Z,40.89
2022-08-26T13:12:22.496Z,41.07
2022-08-26T13:19:10.245Z,39.85
2022-08-26T13:22:31.231Z,39.92
2022-08-26T13:26:00.222Z,40.27
2022-08-26T13:29:25.362Z,40.06
2022-08-26T13:33:04.502Z,40.14
2022-08-26T13:36:31.963Z,40.31
2022-08-26T13:40:21.624Z,40.85
2022-08-26T13:43:59.441Z,40.86
2022-08-26T13:47:33.286Z,42.91
2022-08-26T13:51:34.839Z,44.84
2022-08-26T13:55:33.246Z,44.00
2022-08-26T13:59:05.621Z,43.63
2022-08-26T14:09:52.406Z,40.22
2022-08-26T14:13:32.730Z,40.14
2022-08-26T14:20:33.618Z,40.22
2022-08-26T14:23:41.101Z,38.92
2022-08-26T14:27:00.974Z,39.38
2022-08-26T14:30:09.236Z,38.24
2022-08-26T14:33:33.487Z,37.40
2022-08-26T14:37:07.683Z,37.35
2022-08-26T14:40:20.825Z,36.45
2022-08-26T14:43:54.109Z,36.76
2022-08-26T14:47:12.639Z,35.88
2022-08-26T14:50:28.170Z,35.38
2022-08-26T14:54:14.484Z,36.68
2022-08-26T15:01:32.980Z,38.20
2022-08-26T15:04:40.396Z,38.90
2022-08-26T15:07:49.276Z,39.19
2022-08-26T15:10:55.752Z,40.20
2022-08-26T15:14:01.849Z,40.45
2022-08-26T15:17:08.696Z,41.12
2022-08-26T15:20:15.989Z,40.80
2022-08-26T15:23:23.533Z,41.04
2022-08-26T15:26:33.417Z,42.42
2022-08-26T15:29:40.434Z,43.49
2022-08-26T15:32:50.169Z,45.82
2022-08-26T15:35:58.603Z,56.80
2022-08-26T15:39:11.101Z,63.70
2022-08-26T15:42:18.143Z,62.02
2022-08-26T15:45:26.250Z,60.53
2022-08-26T15:48:42.193Z,60.22
2022-08-26T15:51:57.795Z,58.05
2022-08-26T15:55:17.414Z,59.68
2022-08-26T15:58:28.875Z,65.17
2022-08-26T16:01:41.209Z,68.43
2022-08-26T16:04:49.054Z,71.29
2022-08-26T16:07:56.956Z,73.42
2022-08-26T16:11:11.227Z,75.28
2022-08-26T16:14:20.756Z,77.07
2022-08-26T16:17:30.901Z,77.77
2022-08-26T16:20:39.214Z,77.80
2022-08-26T16:23:47.327Z,76.40
2022-08-26T16:26:58.599Z,77.39
2022-08-26T16:30:08.458Z,77.89
2022-08-26T16:33:21.578Z,78.96
2022-08-26T16:36:35.828Z,80.50
2022-08-26T16:39:45.043Z,82.47
2022-08-26T16:42:56.092Z,82.88
2022-08-26T16:46:02.602Z,83.64
2022-08-26T16:49:09.022Z,81.69
2022-08-26T16:52:16.515Z,81.02
2022-08-26T16:55:26.199Z,82.38
2022-08-26T16:58:35.294Z,80.19
2022-08-26T17:01:44.911Z,80.50
2022-08-26T17:04:52.333Z,80.34
2022-08-26T17:08:00.769Z,81.40
2022-08-26T17:11:07.610Z,80.81
2022-08-26T17:14:16.258Z,79.15
2022-08-26T17:17:24.722Z,77.95
2022-08-26T17:20:33.434Z,76.33
2022-08-26T17:23:39.967Z,75.92
2022-08-26T17:26:53.539Z,72.76
2022-08-26T17:30:04.387Z,71.41
2022-08-26T17:33:13.135Z,72.35
2022-08-26T17:36:20.095Z,74.38
2022-08-26T17:39:28.412Z,77.59
2022-08-26T17:42:35.196Z,80.41
2022-08-26T17:45:50.470Z,82.71
2022-08-26T17:49:01.009Z,83.78
2022-08-26T17:52:13.624Z,83.71
2022-08-26T17:55:23.302Z,83.73
2022-08-26T17:58:30.692Z,84.40
2022-08-26T18:01:49.238Z,84.04
2022-08-26T18:04:56.534Z,84.49
2022-08-26T18:08:08.358Z,84.75
2022-08-26T18:11:19.625Z,85.17
2022-08-26T18:14:27.115Z,85.15
2022-08-26T18:17:36.147Z,85.63
2022-08-26T18:20:46.269Z,87.00
2022-08-26T18:23:58.894Z,88.23
2022-08-26T18:27:08.006Z,88.71
2022-08-26T18:30:16.900Z,88.38
2022-08-26T18:33:29.083Z,88.81
2022-08-26T18:36:40.963Z,88.69
2022-08-26T18:39:48.004Z,89.53
2022-08-26T18:42:56.817Z,90.17
2022-08-26T18:46:07.526Z,90.49
2022-08-26T18:49:16.296Z,90.98
2022-08-26T18:52:23.483Z,91.05
2022-08-26T18:55:31.061Z,90.73
2022-08-26T18:58:38.124Z,91.14
2022-08-26T19:01:46.393Z,91.39
2022-08-26T19:05:02.105Z,90.68
2022-08-26T19:08:09.007Z,91.32
2022-08-26T19:11:15.728Z,91.36
2022-08-26T19:14:23.042Z,91.22
2022-08-26T19:17:30.620Z,91.43
2022-08-26T19:20:46.533Z,91.57
2022-08-26T19:23:55.377Z,90.93
2022-08-26T19:27:04.061Z,91.31
2022-08-26T19:30:13.396Z,91.05
2022-08-26T19:33:22.333Z,90.69
2022-08-26T19:36:31.771Z,90.61
2022-08-26T19:39:39.879Z,90.76
2022-08-26T19:42:49.220Z,90.40
2022-08-26T19:45:58.489Z,90.84
2022-08-26T19:49:05.797Z,90.76
2022-08-26T19:52:16.831Z,90.97
2022-08-26T19:55:25.040Z,91.22
2022-08-26T19:58:33.308Z,91.51
2022-08-26T20:01:42.286Z,91.55
2022-08-26T20:04:54.840Z,91.24
2022-08-26T20:08:09.173Z,91.70
2022-08-26T20:11:35.415Z,91.94
2022-08-26T20:14:42.690Z,91.84
2022-08-26T20:18:00.425Z,92.26
2022-08-26T20:21:25.119Z,92.47
2022-08-26T20:24:35.586Z,92.86
2022-08-26T20:27:44.654Z,92.79
2022-08-26T20:30:52.824Z,92.29
2022-08-26T20:34:01.014Z,92.48
2022-08-26T20:37:09.116Z,92.24
2022-08-26T20:40:18.953Z,92.63
2022-08-26T20:43:25.066Z,92.54
2022-08-26T20:46:32.154Z,93.13
2022-08-26T20:49:40.382Z,93.14
2022-08-26T20:52:48.662Z,93.30
2022-08-26T20:55:57.004Z,93.74
2022-08-26T20:59:05.851Z,93.63
2022-08-26T21:02:11.578Z,92.98
2022-08-26T21:05:32.566Z,92.76
2022-08-26T21:08:43.454Z,92.98
2022-08-26T21:11:53.333Z,92.94
2022-08-26T21:14:59.631Z,92.92
2022-08-26T21:18:07.157Z,93.26
2022-08-26T21:21:13.853Z,93.33
2022-08-26T21:24:21.747Z,93.61
2022-08-26T21:27:29.771Z,93.92
2022-08-26T21:30:35.966Z,93.96
2022-08-26T21:33:43.877Z,94.18
2022-08-26T21:36:53.078Z,94.32
2022-08-26T21:40:00.431Z,94.38
2022-08-26T21:43:07.762Z,94.76
2022-08-26T21:46:16.285Z,94.61
2022-08-26T21:49:20.828Z,94.99
2022-08-26T21:52:27.874Z,95.01
2022-08-26T21:55:39.078Z,94.33
2022-08-26T21:58:47.081Z,94.56
2022-08-26T22:01:56.455Z,94.59
2022-08-26T22:05:03.840Z,94.49
2022-08-26T22:08:09.946Z,94.51
2022-08-26T22:11:15.536Z,94.63
2022-08-26T22:14:30.846Z,94.99
2022-08-26T22:17:39.791Z,94.89
2022-08-26T22:20:53.073Z,95.03
2022-08-26T22:24:01.073Z,95.03
2022-08-26T22:27:14.677Z,95.20
2022-08-26T22:30:27.871Z,95.79
2022-08-26T22:33:34.901Z,96.00
2022-08-26T22:36:53.353Z,95.95
2022-08-26T22:40:07.728Z,96.31
2022-08-26T22:43:24.747Z,95.66
2022-08-26T22:46:35.101Z,95.31
2022-08-26T22:49:42.145Z,95.64
2022-08-26T22:52:47.382Z,95.90
2022-08-26T22:55:51.982Z,95.42
2022-08-26T22:59:02.119Z,95.82
2022-08-26T23:02:14.247Z,95.47
2022-08-26T23:05:19.551Z,95.15
2022-08-26T23:08:31.548Z,94.72
2022-08-26T23:11:42.364Z,95.33
2022-08-26T23:14:52.278Z,94.96
2022-08-26T23:17:59.826Z,95.08
2022-08-26T23:21:14.787Z,95.00
2022-08-26T23:24:22.787Z,94.78
2022-08-26T23:27:28.257Z,94.84
2022-08-26T23:30:38.847Z,94.99
2022-08-26T23:34:07.258Z,94.54
2022-08-26T23:37:13.365Z,94.60
2022-08-26T23:40:22.087Z,94.37
2022-08-26T23:43:27.220Z,94.38
2022-08-26T23:46:31.366Z,94.21
2022-08-26T23:49:40.348Z,94.07
2022-08-26T23:53:03.331Z,94.55
2022-08-26T23:56:15.368Z,94.39
2022-08-26T23:59:24.599Z,94.71
